createdAt,value
2023-02-22T00:01:08.229Z,8.20
2023-02-22T00:02:44.993Z,8.20
2023-02-22T00:04:21.150Z,8.20
2023-02-22T00:05:58.037Z,8.20
2023-02-22T00:07:29.776Z,8.20
2023-02-22T00:09:03.254Z,8.20
2023-02-22T00:10:35.239Z,8.20
2023-02-22T00:12:08.579Z,8.10
2023-02-22T00:13:44.062Z,8.10
2023-02-22T00:15:17.420Z,8.10
2023-02-22T00:16:51.495Z,8.10
2023-02-22T00:18:27.761Z,8.10
2023-02-22T00:20:00.911Z,8.10
2023-02-22T00:21:33.611Z,8.10
2023-02-22T00:23:08.039Z,8.10
2023-02-22T00:24:39.770Z,8.10
2023-02-22T00:26:13.158Z,8.10
2023-02-22T00:27:47.893Z,8.00
2023-02-22T00:29:20.589Z,8.00
2023-02-22T00:30:54.684Z,8.10
2023-02-22T00:32:27.504Z,8.10
2023-02-22T00:34:00.526Z,8.10
2023-02-22T00:35:34.662Z,8.10
2023-02-22T00:37:07.645Z,8.10
2023-02-22T00:38:41.382Z,8.00
2023-02-22T00:40:17.744Z,8.00
2023-02-22T00:41:50.642Z,8.00
2023-02-22T00:43:24.956Z,8.00
2023-02-22T00:44:57.644Z,8.00
2023-02-22T00:46:30.346Z,8.00
2023-02-22T00:48:03.237Z,7.90
2023-02-22T00:49:36.281Z,7.90
2023-02-22T00:51:10.326Z,7.90
2023-02-22T00:52:43.518Z,7.90
2023-02-22T00:54:17.015Z,7.90
2023-02-22T00:55:50.407Z,7.90
2023-02-22T00:57:23.227Z,7.80
2023-02-22T00:58:55.967Z,7.80
2023-02-22T01:00:30.237Z,7.80
2023-02-22T01:02:02.988Z,7.80
2023-02-22T01:03:35.815Z,7.80
2023-02-22T01:05:10.110Z,7.80
2023-02-22T01:06:44.452Z,7.70
2023-02-22T01:08:18.386Z,7.70
2023-02-22T01:09:50.122Z,7.70
2023-02-22T01:11:23.194Z,7.70
2023-02-22T01:12:57.031Z,7.70
2023-02-22T01:14:30.012Z,7.60
2023-02-22T01:16:03.127Z,7.60
2023-02-22T01:17:34.863Z,7.60
2023-02-22T01:19:07.543Z,7.60
2023-02-22T01:20:40.385Z,7.60
2023-02-22T01:22:14.402Z,7.60
2023-02-22T01:23:48.073Z,7.60
2023-02-22T01:25:21.997Z,7.60
2023-02-22T01:26:54.698Z,7.60
2023-02-22T01:28:29.033Z,7.60
2023-02-22T01:30:01.929Z,7.60
2023-02-22T01:31:34.661Z,7.60
2023-02-22T01:33:08.801Z,7.50
2023-02-22T01:34:41.614Z,7.50
2023-02-22T01:36:14.320Z,7.50
2023-02-22T01:37:48.464Z,7.50
2023-02-22T01:39:21.166Z,7.50
2023-02-22T01:40:53.158Z,7.50
2023-02-22T01:42:25.906Z,7.50
2023-02-22T01:43:58.669Z,7.50
2023-02-22T01:45:58.354Z,7.50
2023-02-22T01:47:31.065Z,7.50
2023-02-22T01:49:06.499Z,7.50
2023-02-22T01:50:44.015Z,7.50
2023-02-22T01:52:19.958Z,7.50
2023-02-22T01:53:56.414Z,7.40
2023-02-22T01:55:28.838Z,7.40
2023-02-22T01:57:07.173Z,7.40
2023-02-22T01:58:42.110Z,7.30
2023-02-22T02:00:21.144Z,7.30
2023-02-22T02:01:53.927Z,7.30
2023-02-22T02:03:30.191Z,7.30
2023-02-22T02:05:08.179Z,7.30
2023-02-22T02:06:42.828Z,7.30
2023-02-22T02:08:24.329Z,7.30
2023-02-22T02:10:01.671Z,7.30
2023-02-22T02:11:34.863Z,7.30
2023-02-22T02:13:06.629Z,7.30
2023-02-22T02:14:40.412Z,7.20
2023-02-22T02:16:14.607Z,7.20
2023-02-22T02:17:46.965Z,7.20
2023-02-22T02:19:26.694Z,7.10
2023-02-22T02:21:41.501Z,7.10
2023-02-22T02:23:37.182Z,7.10
2023-02-22T02:25:43.127Z,7.00
2023-02-22T02:27:19.929Z,6.90
2023-02-22T02:29:37.785Z,6.90
2023-02-22T02:31:37.595Z,6.80
2023-02-22T02:33:18.239Z,6.80
2023-02-22T02:34:55.669Z,6.80
2023-02-22T02:36:32.598Z,6.80
2023-02-22T02:38:12.833Z,6.80
2023-02-22T02:39:50.558Z,6.80
2023-02-22T02:41:27.905Z,6.80
2023-02-22T02:43:04.929Z,6.80
2023-02-22T02:44:42.006Z,6.80
2023-02-22T02:46:20.107Z,6.80
2023-02-22T02:47:58.594Z,6.80
2023-02-22T02:49:37.756Z,6.80
2023-02-22T02:51:14.598Z,6.70
2023-02-22T02:52:47.934Z,6.70
2023-02-22T02:54:21.921Z,6.70
2023-02-22T02:55:54.679Z,6.70
2023-02-22T02:57:27.030Z,6.70
2023-02-22T02:58:59.712Z,6.70
2023-02-22T03:00:39.131Z,6.70
2023-02-22T03:02:28.286Z,6.70
2023-02-22T03:04:13.184Z,6.70
2023-02-22T03:06:06.922Z,6.70
2023-02-22T03:07:49.227Z,6.70
2023-02-22T03:09:36.478Z,6.70
2023-02-22T03:11:16.051Z,6.70
2023-02-22T03:12:55.320Z,6.60
2023-02-22T03:14:35.083Z,6.60
2023-02-22T03:16:20.241Z,6.70
2023-02-22T03:17:57.929Z,6.60
2023-02-22T03:19:36.673Z,6.60
2023-02-22T03:21:18.724Z,6.60
2023-02-22T03:22:58.273Z,6.60
2023-02-22T03:24:33.777Z,6.60
2023-02-22T03:26:11.925Z,6.50
2023-02-22T03:27:48.221Z,6.50
2023-02-22T03:29:24.468Z,6.50
2023-02-22T03:30:59.133Z,6.50
2023-02-22T03:32:37.066Z,6.40
2023-02-22T03:34:12.890Z,6.40
2023-02-22T03:35:51.284Z,6.50
2023-02-22T03:37:28.846Z,6.40
2023-02-22T03:39:04.247Z,6.50
2023-02-22T03:40:43.305Z,6.40
2023-02-22T03:42:19.860Z,6.40
2023-02-22T03:43:58.320Z,6.40
2023-02-22T03:45:32.976Z,6.30
2023-02-22T03:47:10.587Z,6.30
2023-02-22T03:48:49.683Z,6.20
2023-02-22T03:50:29.698Z,6.20
2023-02-22T03:52:03.726Z,6.10
2023-02-22T03:53:37.997Z,6.10
2023-02-22T03:55:11.974Z,6.10
2023-02-22T03:56:51.784Z,6.10
2023-02-22T03:58:25.570Z,6.10
2023-02-22T03:59:58.381Z,6.10
2023-02-22T04:01:31.292Z,6.10
2023-02-22T04:03:03.622Z,6.10
2023-02-22T04:04:36.447Z,6.00
2023-02-22T04:06:10.407Z,6.00
2023-02-22T04:07:43.258Z,6.00
2023-02-22T04:09:17.471Z,6.00
2023-02-22T04:10:50.149Z,5.90
2023-02-22T04:12:22.876Z,5.90
2023-02-22T04:13:55.788Z,5.80
2023-02-22T04:15:28.473Z,5.80
2023-02-22T04:17:01.389Z,5.80
2023-02-22T04:18:34.099Z,5.80
2023-02-22T04:20:06.709Z,5.80
2023-02-22T04:21:39.501Z,5.70
2023-02-22T04:23:12.577Z,5.70
2023-02-22T04:24:46.916Z,5.70
2023-02-22T04:26:19.808Z,5.70
2023-02-22T04:27:53.456Z,5.70
2023-02-22T04:29:26.169Z,5.70
2023-02-22T04:30:58.884Z,5.70
2023-02-22T04:32:31.612Z,5.70
2023-02-22T04:34:04.562Z,5.70
2023-02-22T04:35:37.440Z,5.70
2023-02-22T04:37:10.800Z,5.70
2023-02-22T04:38:43.588Z,5.70
2023-02-22T04:40:18.569Z,5.70
2023-02-22T04:41:51.406Z,5.70
2023-02-22T04:43:24.102Z,5.70
2023-02-22T04:44:56.772Z,5.70
2023-02-22T04:46:29.710Z,5.70
2023-02-22T04:48:01.480Z,5.70
2023-02-22T04:49:34.177Z,5.80
2023-02-22T04:51:08.422Z,5.70
2023-02-22T04:52:41.470Z,5.70
2023-02-22T04:54:13.666Z,5.70
2023-02-22T04:55:47.869Z,5.60
2023-02-22T04:57:19.670Z,5.60
2023-02-22T04:58:52.406Z,5.60
2023-02-22T05:00:25.253Z,5.70
2023-02-22T05:01:57.954Z,5.70
2023-02-22T05:03:30.637Z,5.70
2023-02-22T05:05:03.392Z,5.60
2023-02-22T05:06:35.208Z,5.60
2023-02-22T05:08:07.902Z,5.70
2023-02-22T05:09:40.616Z,5.70
2023-02-22T05:11:14.903Z,5.70
2023-02-22T05:12:47.849Z,5.70
2023-02-22T05:14:20.589Z,5.70
2023-02-22T05:15:54.339Z,5.70
2023-02-22T05:17:26.088Z,5.70
2023-02-22T05:18:58.858Z,5.70
2023-02-22T05:20:33.824Z,5.60
2023-02-22T05:22:06.509Z,5.70
2023-02-22T05:23:38.283Z,5.60
2023-02-22T05:25:11.269Z,5.70
2023-02-22T05:26:45.777Z,5.70
2023-02-22T05:28:18.614Z,5.70
2023-02-22T05:29:51.331Z,5.70
2023-02-22T05:31:24.098Z,5.70
2023-02-22T05:32:56.869Z,5.70
2023-02-22T05:34:30.156Z,5.70
2023-02-22T05:36:03.112Z,5.70
2023-02-22T05:37:36.799Z,5.60
2023-02-22T05:39:09.474Z,5.50
2023-02-22T05:40:41.545Z,5.50
2023-02-22T05:42:15.563Z,5.50
2023-02-22T05:43:48.666Z,5.50
2023-02-22T05:45:23.816Z,5.40
2023-02-22T05:46:56.514Z,5.40
2023-02-22T05:48:29.266Z,5.40
2023-02-22T05:50:02.493Z,5.40
2023-02-22T05:51:35.204Z,5.40
2023-02-22T05:53:07.893Z,5.40
2023-02-22T05:54:40.600Z,5.40
2023-02-22T05:56:13.321Z,5.40
2023-02-22T05:57:47.771Z,5.40
2023-02-22T05:59:20.721Z,5.40
2023-02-22T06:00:53.566Z,5.40
2023-02-22T06:02:26.585Z,5.40
2023-02-22T06:03:59.328Z,5.40
2023-02-22T06:05:32.664Z,5.30
2023-02-22T06:07:05.412Z,5.30
2023-02-22T06:08:38.129Z,5.30
2023-02-22T06:10:10.825Z,5.30
2023-02-22T06:11:43.521Z,5.40
2023-02-22T06:13:17.593Z,5.30
2023-02-22T06:14:50.284Z,5.40
2023-02-22T06:16:23.682Z,5.40
2023-02-22T06:17:57.744Z,5.40
2023-02-22T06:19:30.542Z,5.40
2023-02-22T06:21:04.312Z,5.40
2023-02-22T06:22:37.006Z,5.40
2023-02-22T06:24:09.700Z,5.40
2023-02-22T06:25:42.386Z,5.50
2023-02-22T06:27:15.207Z,5.50
2023-02-22T06:28:49.482Z,5.50
2023-02-22T06:30:23.936Z,5.50
2023-02-22T06:31:57.149Z,5.50
2023-02-22T06:33:29.983Z,5.50
2023-02-22T06:35:02.758Z,5.50
2023-02-22T06:36:35.469Z,5.50
2023-02-22T06:38:08.167Z,5.50
2023-02-22T06:39:40.986Z,5.50
2023-02-22T06:41:15.679Z,5.50
2023-02-22T06:42:49.887Z,5.50
2023-02-22T06:44:23.949Z,5.50
2023-02-22T06:45:56.677Z,5.50
2023-02-22T06:47:28.675Z,5.50
2023-02-22T06:49:01.629Z,5.50
2023-02-22T06:50:35.915Z,5.50
2023-02-22T06:52:10.323Z,5.50
2023-02-22T06:53:43.006Z,5.50
2023-02-22T06:55:19.529Z,5.50
2023-02-22T06:56:52.246Z,5.40
2023-02-22T06:58:25.048Z,5.50
2023-02-22T06:59:59.058Z,5.40
2023-02-22T07:01:31.944Z,5.40
2023-02-22T07:03:05.679Z,5.40
2023-02-22T07:04:38.615Z,5.40
2023-02-22T07:06:11.405Z,5.40
2023-02-22T07:07:44.189Z,5.40
2023-02-22T07:09:18.426Z,5.50
2023-02-22T07:10:52.503Z,5.50
2023-02-22T07:12:24.230Z,5.50
2023-02-22T07:13:56.900Z,5.50
2023-02-22T07:15:32.836Z,5.50
2023-02-22T07:17:05.512Z,5.50
2023-02-22T07:18:38.554Z,5.50
2023-02-22T07:20:11.810Z,5.60
2023-02-22T07:21:44.486Z,5.60
2023-02-22T07:23:17.883Z,5.60
2023-02-22T07:24:50.585Z,5.60
2023-02-22T07:26:24.473Z,5.60
2023-02-22T07:27:57.181Z,5.60
2023-02-22T07:29:31.344Z,5.60
2023-02-22T07:31:05.896Z,5.60
2023-02-22T07:32:38.690Z,5.60
2023-02-22T07:34:12.996Z,5.60
2023-02-22T07:35:47.386Z,5.60
2023-02-22T07:37:21.140Z,5.70
2023-02-22T07:38:53.826Z,5.70
2023-02-22T07:40:28.006Z,5.70
2023-02-22T07:42:00.833Z,5.70
2023-02-22T07:43:34.249Z,5.70
2023-02-22T07:45:07.546Z,5.70
2023-02-22T07:46:41.616Z,5.80
2023-02-22T07:48:17.334Z,5.80
2023-02-22T07:49:50.308Z,5.80
2023-02-22T07:51:23.097Z,5.80
2023-02-22T07:52:58.214Z,5.90
2023-02-22T07:54:30.946Z,5.90
2023-02-22T07:56:05.599Z,5.90
2023-02-22T07:57:38.261Z,6.00
2023-02-22T07:59:10.946Z,6.00
2023-02-22T08:00:44.905Z,6.10
2023-02-22T08:02:19.172Z,6.10
2023-02-22T08:03:52.574Z,6.20
2023-02-22T08:05:26.732Z,6.30
2023-02-22T08:06:59.422Z,6.30
2023-02-22T08:08:32.167Z,6.40
2023-02-22T08:10:06.584Z,6.40
2023-02-22T08:11:39.285Z,6.50
2023-02-22T08:13:12.543Z,6.50
2023-02-22T08:14:45.365Z,6.60
2023-02-22T08:16:18.065Z,6.60
2023-02-22T08:17:53.295Z,6.50
2023-02-22T08:19:25.987Z,6.50
2023-02-22T08:20:58.871Z,6.50
2023-02-22T08:22:31.552Z,6.60
2023-02-22T08:24:04.496Z,6.60
2023-02-22T08:25:37.475Z,6.60
2023-02-22T08:27:10.194Z,6.60
2023-02-22T08:28:43.121Z,6.60
2023-02-22T08:30:18.257Z,6.70
2023-02-22T08:31:54.711Z,6.70
2023-02-22T08:33:28.788Z,6.70
2023-02-22T08:35:01.267Z,6.80
2023-02-22T08:36:34.364Z,6.90
2023-02-22T08:38:08.233Z,6.90
2023-02-22T08:39:40.945Z,7.00
2023-02-22T08:41:13.687Z,7.00
2023-02-22T08:42:46.890Z,7.00
2023-02-22T08:44:19.591Z,7.10
2023-02-22T08:45:54.439Z,7.10
2023-02-22T08:47:28.225Z,7.10
2023-02-22T08:49:02.992Z,7.20
2023-02-22T08:50:36.452Z,7.20
2023-02-22T08:52:09.493Z,7.20
2023-02-22T08:53:42.211Z,7.30
2023-02-22T08:55:14.929Z,7.30
2023-02-22T08:56:47.661Z,7.40
2023-02-22T08:58:20.355Z,7.40
2023-02-22T08:59:53.600Z,7.40
2023-02-22T09:01:32.903Z,7.50
2023-02-22T09:03:08.340Z,7.40
2023-02-22T09:04:42.497Z,7.50
2023-02-22T09:06:15.257Z,7.50
2023-02-22T09:07:48.375Z,7.50
2023-02-22T09:09:21.690Z,7.60
2023-02-22T09:10:54.679Z,7.60
2023-02-22T09:12:27.416Z,7.60
2023-02-22T09:14:00.155Z,7.60
2023-02-22T09:15:35.798Z,7.70
2023-02-22T09:17:08.571Z,7.70
2023-02-22T09:18:44.202Z,7.80
2023-02-22T09:20:20.183Z,7.90
2023-02-22T09:21:56.673Z,7.90
2023-02-22T09:23:29.767Z,8.00
2023-02-22T09:25:11.245Z,8.00
2023-02-22T09:26:53.301Z,8.00
2023-02-22T09:28:27.312Z,8.10
2023-02-22T09:30:00.985Z,8.20
2023-02-22T09:31:36.499Z,8.20
2023-02-22T09:33:11.628Z,8.30
2023-02-22T09:34:45.759Z,8.30
2023-02-22T09:36:21.658Z,8.40
2023-02-22T09:37:56.271Z,8.40
2023-02-22T09:39:29.164Z,8.40
2023-02-22T09:41:12.167Z,8.50
2023-02-22T09:42:56.409Z,8.50
2023-02-22T09:44:37.000Z,8.60
2023-02-22T09:46:20.237Z,8.60
2023-02-22T09:48:01.322Z,8.60
2023-02-22T09:49:47.217Z,8.60
2023-02-22T09:51:23.070Z,8.60
2023-02-22T09:53:04.118Z,8.70
2023-02-22T09:54:43.201Z,8.80
2023-02-22T09:56:18.482Z,8.80
2023-02-22T09:57:55.294Z,8.90
2023-02-22T09:59:31.207Z,9.00
2023-02-22T10:01:22.830Z,9.10
2023-02-22T10:03:06.825Z,9.10
2023-02-22T10:04:44.270Z,9.20
2023-02-22T10:06:21.494Z,9.40
2023-02-22T10:07:59.983Z,9.50
2023-02-22T10:09:34.572Z,9.60
2023-02-22T10:11:19.548Z,9.70
2023-02-22T10:13:01.973Z,9.90
2023-02-22T10:14:47.386Z,10.00
2023-02-22T10:16:30.621Z,10.10
2023-02-22T10:18:22.190Z,10.20
2023-02-22T10:20:06.036Z,10.20
2023-02-22T10:21:57.704Z,10.30
2023-02-22T10:23:37.639Z,10.30
2023-02-22T10:25:13.701Z,10.40
2023-02-22T10:26:47.059Z,10.50
2023-02-22T10:28:24.177Z,10.50
2023-02-22T10:30:15.499Z,10.60
2023-02-22T10:32:00.371Z,10.70
2023-02-22T10:33:37.702Z,10.90
2023-02-22T10:35:21.651Z,11.00
2023-02-22T10:36:59.686Z,11.10
2023-02-22T10:38:35.121Z,11.20
2023-02-22T10:40:17.214Z,11.30
2023-02-22T10:41:52.511Z,11.40
2023-02-22T10:43:25.872Z,11.40
2023-02-22T10:44:58.575Z,11.40
2023-02-22T10:46:34.027Z,11.50
2023-02-22T10:48:11.420Z,11.50
2023-02-22T10:49:47.848Z,11.50
2023-02-22T10:51:21.059Z,11.50
2023-02-22T10:52:55.091Z,11.50
2023-02-22T10:54:33.177Z,11.50
2023-02-22T10:56:08.185Z,11.60
2023-02-22T10:57:43.873Z,11.60
2023-02-22T10:59:28.847Z,11.60
2023-02-22T11:01:01.558Z,11.70
2023-02-22T11:02:36.529Z,11.70
2023-02-22T11:04:13.786Z,11.70
2023-02-22T11:05:47.076Z,11.70
2023-02-22T11:07:27.140Z,11.70
2023-02-22T11:09:11.492Z,11.60
2023-02-22T11:10:45.515Z,11.70
2023-02-22T11:12:21.287Z,11.70
2023-02-22T11:13:56.307Z,11.70
2023-02-22T11:15:29.868Z,11.70
2023-02-22T11:17:08.393Z,11.80
2023-02-22T11:18:41.129Z,11.90
2023-02-22T11:20:25.175Z,11.90
2023-02-22T11:22:01.789Z,12.10
2023-02-22T11:23:35.725Z,12.10
2023-02-22T11:25:09.277Z,12.20
2023-02-22T11:26:46.698Z,12.10
2023-02-22T11:28:30.815Z,12.10
2023-02-22T11:30:28.909Z,12.20
2023-02-22T11:32:05.259Z,12.30
2023-02-22T11:33:39.487Z,12.30
2023-02-22T11:35:35.459Z,12.40
2023-02-22T11:37:22.156Z,12.50
2023-02-22T11:38:59.334Z,12.60
2023-02-22T11:40:33.924Z,12.80
2023-02-22T11:42:23.356Z,12.90
2023-02-22T11:44:12.378Z,12.90
2023-02-22T11:46:02.375Z,13.00
2023-02-22T11:47:35.799Z,13.00
2023-02-22T11:49:11.587Z,13.00
2023-02-22T11:50:59.924Z,13.10
2023-02-22T11:52:38.662Z,13.20
2023-02-22T11:54:31.580Z,13.30
2023-02-22T11:56:22.757Z,13.30
2023-02-22T11:58:14.387Z,13.30
2023-02-22T12:00:00.722Z,13.30
2023-02-22T12:01:43.788Z,13.40
2023-02-22T12:03:34.438Z,13.40
2023-02-22T12:05:28.715Z,13.40
2023-02-22T12:07:29.945Z,13.50
2023-02-22T12:09:14.302Z,13.50
2023-02-22T12:10:56.171Z,13.50
2023-02-22T12:12:40.277Z,13.60
2023-02-22T12:14:22.556Z,13.60
2023-02-22T12:16:03.384Z,13.60
2023-02-22T12:18:05.798Z,13.70
2023-02-22T12:19:43.167Z,13.70
2023-02-22T12:21:19.300Z,13.70
2023-02-22T12:23:03.641Z,13.70
2023-02-22T12:24:39.355Z,13.70
2023-02-22T12:26:17.159Z,13.70
2023-02-22T12:27:53.966Z,13.70
2023-02-22T12:29:37.533Z,13.70
2023-02-22T12:31:20.954Z,13.60
2023-02-22T12:32:56.154Z,13.60
2023-02-22T12:34:35.868Z,13.60
2023-02-22T12:36:15.001Z,13.60
2023-02-22T12:37:58.362Z,13.60
2023-02-22T12:39:53.551Z,13.60
2023-02-22T12:41:31.158Z,13.50
2023-02-22T12:43:10.334Z,13.50
2023-02-22T12:44:49.503Z,13.40
2023-02-22T12:46:27.151Z,13.40
2023-02-22T12:48:18.299Z,13.50
2023-02-22T12:49:59.074Z,13.40
2023-02-22T12:51:41.147Z,13.40
2023-02-22T12:53:20.003Z,13.40
2023-02-22T12:55:00.565Z,13.20
2023-02-22T12:56:37.461Z,13.10
2023-02-22T12:58:21.623Z,13.10
2023-02-22T13:00:00.287Z,13.00
2023-02-22T13:01:38.873Z,12.90
2023-02-22T13:03:28.260Z,12.90
2023-02-22T13:05:02.122Z,12.90
2023-02-22T13:06:57.682Z,12.90
2023-02-22T13:08:36.559Z,12.90
2023-02-22T13:10:26.171Z,13.00
2023-02-22T13:12:07.120Z,13.00
2023-02-22T13:13:55.091Z,12.90
2023-02-22T13:15:33.787Z,13.00
2023-02-22T13:17:13.379Z,12.90
2023-02-22T13:18:51.478Z,13.00
2023-02-22T13:20:29.668Z,12.90
2023-02-22T13:22:08.323Z,12.80
2023-02-22T13:23:48.744Z,12.80
2023-02-22T13:25:28.158Z,12.80
2023-02-22T13:27:03.882Z,12.90
2023-02-22T13:28:44.785Z,12.90
2023-02-22T13:30:27.969Z,12.90
2023-02-22T13:32:21.034Z,12.80
2023-02-22T13:34:18.234Z,12.80
2023-02-22T13:36:19.906Z,12.70
2023-02-22T13:38:30.694Z,12.70
2023-02-22T13:40:22.137Z,12.70
2023-02-22T13:42:23.571Z,12.60
2023-02-22T13:44:26.064Z,12.60
2023-02-22T13:46:20.890Z,12.70
2023-02-22T13:48:39.902Z,12.70
2023-02-22T13:50:44.324Z,12.70
2023-02-22T13:52:20.299Z,12.70
2023-02-22T13:53:56.770Z,12.70
2023-02-22T13:55:34.377Z,12.80
2023-02-22T13:57:19.908Z,12.80
2023-02-22T13:58:54.756Z,12.80
2023-02-22T14:00:44.299Z,12.80
2023-02-22T14:03:00.863Z,12.80
2023-02-22T14:04:42.853Z,12.90
2023-02-22T14:06:37.586Z,12.90
2023-02-22T14:08:45.780Z,12.90
2023-02-22T14:10:39.667Z,13.00
2023-02-22T14:12:48.534Z,13.00
2023-02-22T14:14:22.108Z,13.00
2023-02-22T14:16:21.622Z,13.00
2023-02-22T14:17:59.642Z,13.00
2023-02-22T14:19:32.408Z,13.00
2023-02-22T14:21:11.016Z,13.10
2023-02-22T14:22:46.938Z,13.00
2023-02-22T14:24:20.691Z,13.10
2023-02-22T14:25:53.937Z,13.10
2023-02-22T14:27:39.527Z,13.10
2023-02-22T14:29:21.164Z,13.10
2023-02-22T14:31:07.321Z,13.00
2023-02-22T14:32:40.270Z,13.00
2023-02-22T14:34:14.733Z,13.00
2023-02-22T14:35:50.135Z,13.00
2023-02-22T14:37:27.851Z,13.00
2023-02-22T14:39:08.602Z,13.00
2023-02-22T14:40:43.546Z,13.00
2023-02-22T14:42:20.204Z,13.00
2023-02-22T14:43:55.506Z,13.00
2023-02-22T14:45:33.231Z,13.00
2023-02-22T14:47:08.648Z,13.00
2023-02-22T14:48:43.283Z,13.00
2023-02-22T14:50:23.078Z,12.90
2023-02-22T14:51:59.174Z,12.90
2023-02-22T14:53:39.161Z,12.90
2023-02-22T14:55:21.226Z,12.90
2023-02-22T14:57:11.984Z,12.80
2023-02-22T14:58:49.447Z,12.80
2023-02-22T15:00:30.972Z,12.80
2023-02-22T15:02:11.669Z,12.80
2023-02-22T15:03:45.497Z,12.80
2023-02-22T15:05:20.775Z,12.70
2023-02-22T15:06:54.721Z,12.70
2023-02-22T15:08:28.466Z,12.70
2023-02-22T15:10:23.877Z,12.70
2023-02-22T15:12:12.914Z,12.80
2023-02-22T15:13:51.438Z,12.70
2023-02-22T15:15:24.682Z,12.80
2023-02-22T15:17:00.359Z,12.80
2023-02-22T15:18:38.118Z,12.80
2023-02-22T15:20:15.774Z,12.80
2023-02-22T15:21:49.950Z,12.90
2023-02-22T15:23:24.516Z,12.90
2023-02-22T15:25:01.095Z,12.90
2023-02-22T15:26:37.410Z,12.90
2023-02-22T15:28:15.128Z,12.90
2023-02-22T15:29:47.822Z,12.90
2023-02-22T15:31:31.391Z,12.90
2023-02-22T15:33:24.072Z,12.90
2023-02-22T15:35:06.412Z,12.90
2023-02-22T15:36:39.538Z,12.90
2023-02-22T15:38:28.368Z,12.90
2023-02-22T15:40:14.325Z,12.90
2023-02-22T15:41:48.389Z,12.90
2023-02-22T15:43:24.357Z,12.90
2023-02-22T15:44:58.036Z,12.90
2023-02-22T15:46:31.671Z,12.90
2023-02-22T15:48:05.026Z,12.90
2023-02-22T15:49:37.913Z,12.90
2023-02-22T15:51:13.959Z,12.90
2023-02-22T15:52:53.873Z,12.90
2023-02-22T15:54:28.044Z,12.80
2023-02-22T15:56:03.705Z,12.90
2023-02-22T15:57:37.750Z,12.80
2023-02-22T15:59:14.297Z,12.80
2023-02-22T16:00:50.143Z,12.80
2023-02-22T16:02:36.868Z,12.80
2023-02-22T16:04:17.948Z,12.80
2023-02-22T16:05:55.491Z,12.80
2023-02-22T16:07:28.460Z,12.70
2023-02-22T16:09:07.743Z,12.70
2023-02-22T16:10:54.172Z,12.70
2023-02-22T16:12:29.213Z,12.60
2023-02-22T16:14:05.577Z,12.70
2023-02-22T16:15:38.441Z,12.60
2023-02-22T16:17:31.614Z,12.70
2023-02-22T16:19:28.738Z,12.60
2023-02-22T16:21:03.821Z,12.60
2023-02-22T16:22:38.935Z,12.60
2023-02-22T16:24:27.207Z,12.60
2023-02-22T16:26:18.661Z,12.60
2023-02-22T16:27:55.765Z,12.50
2023-02-22T16:29:29.886Z,12.60
2023-02-22T16:31:04.029Z,12.50
2023-02-22T16:32:36.901Z,12.50
2023-02-22T16:34:10.857Z,12.50
2023-02-22T16:35:52.036Z,12.40
2023-02-22T16:37:25.096Z,12.40
2023-02-22T16:38:57.806Z,12.40
2023-02-22T16:40:34.608Z,12.30
2023-02-22T16:42:09.791Z,12.30
2023-02-22T16:43:46.110Z,12.30
2023-02-22T16:45:21.849Z,12.30
2023-02-22T16:46:55.593Z,12.30
2023-02-22T16:48:30.425Z,12.20
2023-02-22T16:50:03.470Z,12.20
2023-02-22T16:51:42.346Z,12.20
2023-02-22T16:53:19.858Z,12.10
2023-02-22T16:54:52.886Z,12.10
2023-02-22T16:56:31.017Z,12.00
2023-02-22T16:58:04.965Z,12.00
2023-02-22T16:59:40.043Z,12.00
2023-02-22T17:01:14.332Z,12.00
2023-02-22T17:02:47.068Z,12.00
2023-02-22T17:04:22.116Z,12.00
2023-02-22T17:05:55.102Z,12.00
2023-02-22T17:07:30.690Z,12.00
2023-02-22T17:09:03.394Z,11.90
2023-02-22T17:10:36.430Z,11.90
2023-02-22T17:12:09.685Z,11.80
2023-02-22T17:13:42.626Z,11.80
2023-02-22T17:15:22.111Z,11.80
2023-02-22T17:16:59.377Z,11.80
2023-02-22T17:18:34.003Z,11.80
2023-02-22T17:20:11.433Z,11.70
2023-02-22T17:21:44.237Z,11.70
2023-02-22T17:23:17.617Z,11.70
2023-02-22T17:24:50.322Z,11.70
2023-02-22T17:26:23.411Z,11.70
2023-02-22T17:27:56.106Z,11.70
2023-02-22T17:29:29.415Z,11.70
2023-02-22T17:31:02.486Z,11.70
2023-02-22T17:32:36.690Z,11.60
2023-02-22T17:34:09.549Z,11.60
2023-02-22T17:35:42.258Z,11.60
2023-02-22T17:37:14.945Z,11.50
2023-02-22T17:38:47.641Z,11.50
2023-02-22T17:40:20.370Z,11.50
2023-02-22T17:41:57.499Z,11.40
2023-02-22T17:43:30.313Z,11.40
2023-02-22T17:45:03.077Z,11.40
2023-02-22T17:46:36.522Z,11.40
2023-02-22T17:48:10.669Z,11.30
2023-02-22T17:49:44.113Z,11.30
2023-02-22T17:51:17.294Z,11.30
2023-02-22T17:52:51.835Z,11.30
2023-02-22T17:54:26.853Z,11.20
2023-02-22T17:55:59.549Z,11.20
2023-02-22T17:57:32.238Z,11.20
2023-02-22T17:59:08.001Z,11.10
2023-02-22T18:00:42.625Z,11.10
2023-02-22T18:02:15.365Z,11.10
2023-02-22T18:03:49.599Z,11.10
2023-02-22T18:05:22.436Z,11.10
2023-02-22T18:06:55.126Z,11.10
2023-02-22T18:08:31.045Z,11.10
2023-02-22T18:10:05.169Z,11.10
2023-02-22T18:11:39.433Z,11.10
2023-02-22T18:13:16.556Z,11.00
2023-02-22T18:14:49.409Z,11.00
2023-02-22T18:16:22.207Z,11.00
2023-02-22T18:17:55.789Z,11.00
2023-02-22T18:19:29.819Z,11.00
2023-02-22T18:21:02.540Z,11.00
2023-02-22T18:22:35.230Z,11.00
2023-02-22T18:24:08.339Z,11.00
2023-02-22T18:25:42.253Z,10.90
2023-02-22T18:27:15.052Z,10.90
2023-02-22T18:28:49.027Z,10.90
2023-02-22T18:30:21.959Z,10.90
2023-02-22T18:31:54.770Z,10.90
2023-02-22T18:33:27.705Z,10.80
2023-02-22T18:35:02.411Z,10.80
2023-02-22T18:36:35.143Z,10.80
2023-02-22T18:38:09.268Z,10.80
2023-02-22T18:39:43.129Z,10.80
2023-02-22T18:41:17.847Z,10.90
2023-02-22T18:42:50.873Z,10.80
2023-02-22T18:44:23.555Z,10.90
2023-02-22T18:46:05.136Z,10.90
2023-02-22T18:47:42.965Z,10.90
2023-02-22T18:49:15.707Z,10.90
2023-02-22T18:50:49.718Z,10.80
2023-02-22T18:52:22.417Z,10.80
2023-02-22T18:54:00.178Z,10.80
2023-02-22T18:55:37.099Z,10.80
2023-02-22T18:57:12.272Z,10.80
2023-02-22T18:58:45.028Z,10.80
2023-02-22T19:00:23.092Z,10.80
2023-02-22T19:01:55.803Z,10.80
2023-02-22T19:03:28.958Z,10.80
2023-02-22T19:05:02.508Z,10.80
2023-02-22T19:06:36.596Z,10.80
2023-02-22T19:08:11.205Z,10.80
2023-02-22T19:09:43.999Z,10.80
2023-02-22T19:11:19.187Z,10.80
2023-02-22T19:12:51.881Z,10.80
2023-02-22T19:14:24.561Z,10.80
2023-02-22T19:15:56.367Z,10.70
2023-02-22T19:17:31.053Z,10.70
2023-02-22T19:19:03.876Z,10.70
2023-02-22T19:20:36.710Z,10.70
2023-02-22T19:22:14.915Z,10.60
2023-02-22T19:23:48.263Z,10.60
2023-02-22T19:25:21.229Z,10.60
2023-02-22T19:26:57.366Z,10.60
2023-02-22T19:28:33.881Z,10.60
2023-02-22T19:30:08.105Z,10.60
2023-02-22T19:31:41.937Z,10.60
2023-02-22T19:33:14.722Z,10.60
2023-02-22T19:34:47.786Z,10.50
2023-02-22T19:36:22.859Z,10.50
2023-02-22T19:37:58.120Z,10.50
2023-02-22T19:39:30.871Z,10.50
2023-02-22T19:41:10.191Z,10.50
2023-02-22T19:42:43.143Z,10.50
2023-02-22T19:44:15.848Z,10.50
2023-02-22T19:45:48.611Z,10.40
2023-02-22T19:47:22.496Z,10.40
2023-02-22T19:48:56.172Z,10.40
2023-02-22T19:50:28.934Z,10.40
2023-02-22T19:52:03.719Z,10.30
2023-02-22T19:53:39.391Z,10.40
2023-02-22T19:55:13.326Z,10.40
2023-02-22T19:56:50.751Z,10.30
2023-02-22T19:58:23.450Z,10.40
2023-02-22T19:59:56.160Z,10.40
2023-02-22T20:01:32.850Z,10.30
2023-02-22T20:03:06.584Z,10.30
2023-02-22T20:04:39.355Z,10.30
2023-02-22T20:06:12.325Z,10.40
2023-02-22T20:07:45.028Z,10.30
2023-02-22T20:09:21.329Z,10.30
2023-02-22T20:10:58.567Z,10.30
2023-02-22T20:12:31.986Z,10.30
2023-02-22T20:14:06.643Z,10.30
2023-02-22T20:15:39.755Z,10.30
2023-02-22T20:17:12.845Z,10.30
2023-02-22T20:18:46.681Z,10.30
2023-02-22T20:20:19.601Z,10.30
2023-02-22T20:21:53.006Z,10.30
2023-02-22T20:23:25.724Z,10.30
2023-02-22T20:24:59.810Z,10.40
2023-02-22T20:26:34.366Z,10.40
2023-02-22T20:28:07.846Z,10.40
2023-02-22T20:29:40.885Z,10.30
2023-02-22T20:31:15.818Z,10.30
2023-02-22T20:32:48.933Z,10.30
2023-02-22T20:34:21.774Z,10.30
2023-02-22T20:35:54.503Z,10.30
2023-02-22T20:37:27.251Z,10.30
2023-02-22T20:39:00.968Z,10.30
2023-02-22T20:40:35.005Z,10.30
2023-02-22T20:42:08.605Z,10.20
2023-02-22T20:43:41.335Z,10.20
2023-02-22T20:45:16.108Z,10.20
2023-02-22T20:46:49.353Z,10.20
2023-02-22T20:48:22.032Z,10.20
2023-02-22T20:49:54.700Z,10.20
2023-02-22T20:51:28.589Z,10.20
2023-02-22T20:53:01.257Z,10.20
2023-02-22T20:54:34.321Z,10.20
2023-02-22T20:56:08.546Z,10.20
2023-02-22T20:57:41.269Z,10.20
2023-02-22T20:59:16.696Z,10.10
2023-02-22T21:00:49.379Z,10.20
2023-02-22T21:02:22.111Z,10.10
2023-02-22T21:03:54.837Z,10.10
2023-02-22T21:05:27.607Z,10.10
2023-02-22T21:07:01.058Z,10.10